createdAt,value
2018-06-17T00:00:21.809Z,14.77
2018-06-17T00:02:49.975Z,13.87
2018-06-17T00:05:17.946Z,13.87
2018-06-17T00:07:46.095Z,13.80
2018-06-17T00:10:14.398Z,11.40
2018-06-17T00:12:42.546Z,10.00
2018-06-17T00:15:10.722Z,9.60
2018-06-17T00:17:38.878Z,9.30
2018-06-17T00:20:07.048Z,9.20
2018-06-17T00:22:35.225Z,8.10
2018-06-17T00:25:03.355Z,9.07
2018-06-17T00:27:31.504Z,7.60
2018-06-17T00:29:59.650Z,7.63
2018-06-17T00:32:27.870Z,6.77
2018-06-17T00:34:56.006Z,6.70
2018-06-17T00:37:24.207Z,6.73
2018-06-17T00:39:52.346Z,6.80
2018-06-17T00:42:20.486Z,6.83
2018-06-17T00:44:48.650Z,6.23
2018-06-17T00:47:16.803Z,6.10
2018-06-17T00:49:44.975Z,6.20
2018-06-17T00:52:13.131Z,5.80
2018-06-17T00:54:41.265Z,6.13
2018-06-17T00:57:20.711Z,5.63
2018-06-17T00:59:48.866Z,6.13
2018-06-17T01:02:16.998Z,6.10
2018-06-17T01:04:45.150Z,6.13
2018-06-17T01:07:13.285Z,6.17
2018-06-17T01:09:41.434Z,6.57
2018-06-17T01:12:09.598Z,6.20
2018-06-17T01:14:37.778Z,5.90
2018-06-17T01:17:05.918Z,5.70
2018-06-17T01:19:34.054Z,6.13
2018-06-17T01:22:02.700Z,6.27
2018-06-17T01:24:30.961Z,6.23
2018-06-17T01:26:59.163Z,5.80
2018-06-17T01:29:27.327Z,6.10
2018-06-17T01:31:55.458Z,6.40
2018-06-17T01:34:23.602Z,5.17
2018-06-17T01:36:51.740Z,5.30
2018-06-17T01:39:19.883Z,4.80
2018-06-17T01:41:48.257Z,4.53
2018-06-17T01:44:16.473Z,4.50
2018-06-17T01:46:44.601Z,4.67
2018-06-17T01:49:12.509Z,4.10
2018-06-17T01:51:40.642Z,4.27
2018-06-17T01:54:08.605Z,3.77
2018-06-17T01:56:36.783Z,3.37
2018-06-17T01:59:04.922Z,4.50
2018-06-17T02:01:33.075Z,3.80
2018-06-17T02:04:06.586Z,3.40
2018-06-17T02:06:40.230Z,3.40
2018-06-17T02:09:13.879Z,4.23
2018-06-17T02:11:48.228Z,3.10
2018-06-17T02:14:21.854Z,3.10
2018-06-17T02:16:49.998Z,2.90
2018-06-17T02:19:18.170Z,3.30
2018-06-17T02:21:46.442Z,3.37
2018-06-17T02:24:14.663Z,2.83
2018-06-17T02:26:42.874Z,3.20
2018-06-17T02:29:11.001Z,3.43
2018-06-17T02:31:39.142Z,3.30
2018-06-17T02:34:07.295Z,3.20
2018-06-17T02:36:35.467Z,3.37
2018-06-17T02:39:04.562Z,3.03
2018-06-17T02:41:32.709Z,2.77
2018-06-17T02:44:00.859Z,3.10
2018-06-17T02:46:34.559Z,3.00
2018-06-17T02:49:08.267Z,3.40
2018-06-17T02:51:41.869Z,3.50
2018-06-17T02:54:15.678Z,4.20
2018-06-17T02:56:43.852Z,4.40
2018-06-17T02:59:12.110Z,3.90
2018-06-17T03:01:40.266Z,3.83
2018-06-17T03:04:08.399Z,3.70
2018-06-17T03:06:36.540Z,4.20
2018-06-17T03:09:06.458Z,4.07
2018-06-17T03:11:34.602Z,4.03
2018-06-17T03:14:02.894Z,4.20
2018-06-17T03:16:30.906Z,4.03
2018-06-17T03:18:59.099Z,3.97
2018-06-17T03:21:27.238Z,3.73
2018-06-17T03:23:55.323Z,3.90
2018-06-17T03:26:28.806Z,4.10
2018-06-17T03:29:02.406Z,3.60
2018-06-17T03:31:36.142Z,3.50
2018-06-17T03:34:04.334Z,3.67
2018-06-17T03:36:32.485Z,3.40
2018-06-17T03:39:00.645Z,3.73
2018-06-17T03:41:28.793Z,3.53
2018-06-17T03:43:56.948Z,3.70
2018-06-17T03:46:25.099Z,3.77
2018-06-17T03:48:53.302Z,3.20
2018-06-17T03:51:21.565Z,3.37
2018-06-17T03:53:49.713Z,3.30
2018-06-17T03:56:17.854Z,3.70
2018-06-17T03:58:45.998Z,3.37
2018-06-17T04:01:14.146Z,2.80
2018-06-17T04:03:42.351Z,3.17
2018-06-17T04:06:10.503Z,3.30
2018-06-17T04:08:38.425Z,3.00
2018-06-17T04:11:06.559Z,2.93
2018-06-17T04:13:34.707Z,3.10
2018-06-17T04:16:02.901Z,2.60
2018-06-17T04:18:31.059Z,2.67
2018-06-17T04:20:59.294Z,2.70
2018-06-17T04:23:28.258Z,2.33
2018-06-17T04:25:56.422Z,2.73
2018-06-17T04:28:24.570Z,2.50
2018-06-17T04:30:52.745Z,2.57
2018-06-17T04:33:20.910Z,2.87
2018-06-17T04:35:49.158Z,2.93
2018-06-17T04:38:17.356Z,2.50
2018-06-17T04:40:45.531Z,2.90
2018-06-17T04:43:13.702Z,2.63
2018-06-17T04:45:41.900Z,2.60
2018-06-17T04:48:09.986Z,2.67
2018-06-17T04:50:38.158Z,2.67
2018-06-17T04:53:06.315Z,2.50
2018-06-17T04:55:34.480Z,2.63
2018-06-17T04:58:02.610Z,2.43
2018-06-17T05:00:30.758Z,2.70
2018-06-17T05:02:58.906Z,2.30
2018-06-17T05:05:27.164Z,2.43
2018-06-17T05:07:55.309Z,2.43
2018-06-17T05:10:24.894Z,2.30
2018-06-17T05:12:53.275Z,2.80
2018-06-17T05:15:21.422Z,2.57
2018-06-17T05:17:49.326Z,2.57
2018-06-17T05:20:17.499Z,2.17
2018-06-17T05:22:45.686Z,2.40
2018-06-17T05:25:13.846Z,2.20
2018-06-17T05:27:41.985Z,2.77
2018-06-17T05:30:10.139Z,2.00
2018-06-17T05:32:38.284Z,2.40
2018-06-17T05:35:06.438Z,3.03
2018-06-17T05:37:34.397Z,2.80
2018-06-17T05:40:02.592Z,2.20
2018-06-17T05:42:30.824Z,2.73
2018-06-17T05:44:58.975Z,2.70
2018-06-17T05:47:27.164Z,2.70
2018-06-17T05:49:55.271Z,2.70
2018-06-17T05:52:23.539Z,2.70
2018-06-17T05:54:51.709Z,2.90
2018-06-17T05:57:20.113Z,2.80
2018-06-17T05:59:48.346Z,2.37
2018-06-17T06:02:16.495Z,2.63
2018-06-17T06:04:44.633Z,2.77
2018-06-17T06:07:13.534Z,3.50
2018-06-17T06:09:41.705Z,2.90
2018-06-17T06:12:09.847Z,3.03
2018-06-17T06:14:37.979Z,2.90
2018-06-17T06:17:06.122Z,2.30
2018-06-17T06:19:34.281Z,2.50
2018-06-17T06:22:02.457Z,3.00
2018-06-17T06:24:30.593Z,2.50
2018-06-17T06:26:58.730Z,2.30
2018-06-17T06:29:26.861Z,2.50
2018-06-17T06:31:54.821Z,2.70
2018-06-17T06:34:22.987Z,2.27
2018-06-17T06:36:51.126Z,2.57
2018-06-17T06:39:19.371Z,2.43
2018-06-17T06:41:47.522Z,2.40
2018-06-17T06:44:15.662Z,2.90
2018-06-17T06:46:44.102Z,2.37
2018-06-17T06:49:12.058Z,3.00
2018-06-17T06:51:40.267Z,2.83
2018-06-17T06:54:08.402Z,2.63
2018-06-17T06:56:36.562Z,2.97
2018-06-17T06:59:05.806Z,2.60
2018-06-17T07:01:46.196Z,3.33
2018-06-17T07:04:25.759Z,2.50
2018-06-17T07:07:05.527Z,2.60
2018-06-17T07:10:41.191Z,2.80
2018-06-17T07:13:09.609Z,2.87
2018-06-17T07:15:49.254Z,3.50
2018-06-17T07:18:32.902Z,2.77
2018-06-17T07:21:01.038Z,2.60
2018-06-17T07:23:29.467Z,2.37
2018-06-17T07:26:36.735Z,2.70
2018-06-17T07:29:16.463Z,2.37
2018-06-17T07:31:44.603Z,2.50
2018-06-17T07:34:13.550Z,2.13
2018-06-17T07:36:41.925Z,2.70
2018-06-17T07:40:26.450Z,2.57
2018-06-17T07:42:54.700Z,2.57
2018-06-17T07:45:22.871Z,2.67
2018-06-17T07:47:51.039Z,3.13
2018-06-17T07:50:30.894Z,3.33
2018-06-17T07:53:12.370Z,4.23
2018-06-17T07:55:40.508Z,3.13
2018-06-17T07:58:08.677Z,2.93
2018-06-17T08:00:36.966Z,2.80
2018-06-17T08:03:05.278Z,2.27
2018-06-17T08:05:33.477Z,2.10
2018-06-17T08:08:01.622Z,2.37
2018-06-17T08:10:29.815Z,1.97
2018-06-17T08:12:57.991Z,2.33
2018-06-17T08:15:26.723Z,2.90
2018-06-17T08:17:55.004Z,2.27
2018-06-17T08:20:23.226Z,2.43
2018-06-17T08:22:51.706Z,2.37
2018-06-17T08:25:19.902Z,2.70
2018-06-17T08:27:48.142Z,3.23
2018-06-17T08:30:16.290Z,3.13
2018-06-17T08:32:44.438Z,3.17
2018-06-17T08:35:12.598Z,3.77
2018-06-17T08:37:40.806Z,3.70
2018-06-17T08:40:09.076Z,3.47
2018-06-17T08:42:37.246Z,3.17
2018-06-17T08:45:05.410Z,3.90
2018-06-17T08:47:33.546Z,4.13
2018-06-17T08:50:01.703Z,3.00
2018-06-17T08:52:29.879Z,2.50
2018-06-17T08:54:58.043Z,3.40
2018-06-17T08:57:26.191Z,3.07
2018-06-17T08:59:54.346Z,2.97
2018-06-17T09:02:22.881Z,3.03
2018-06-17T09:04:51.137Z,2.67
2018-06-17T09:07:19.319Z,2.37
2018-06-17T09:09:47.698Z,2.87
2018-06-17T09:12:15.855Z,2.70
2018-06-17T09:14:44.003Z,3.90
2018-06-17T09:17:12.147Z,3.03
2018-06-17T09:19:40.347Z,2.50
2018-06-17T09:22:08.587Z,4.10
2018-06-17T09:24:36.774Z,2.50
2018-06-17T09:27:05.168Z,3.00
2018-06-17T09:29:33.314Z,3.33
2018-06-17T09:32:01.489Z,3.30
2018-06-17T09:34:29.593Z,2.70
2018-06-17T09:36:57.770Z,3.63
2018-06-17T09:39:25.917Z,3.83
2018-06-17T09:41:54.114Z,3.27
2018-06-17T09:44:22.457Z,3.50
2018-06-17T09:46:50.602Z,2.80
2018-06-17T09:49:18.830Z,3.20
2018-06-17T09:51:47.054Z,3.07
2018-06-17T09:54:15.242Z,3.33
2018-06-17T09:56:43.589Z,3.40
2018-06-17T09:59:11.726Z,3.57
2018-06-17T10:01:39.889Z,2.90
2018-06-17T10:04:08.044Z,3.90
2018-06-17T10:06:36.296Z,2.90
2018-06-17T10:09:08.119Z,3.00
2018-06-17T10:11:36.263Z,3.03
2018-06-17T10:14:04.530Z,2.90
2018-06-17T10:16:33.203Z,2.90
2018-06-17T10:19:01.358Z,3.07
2018-06-17T10:21:29.526Z,2.90
2018-06-17T10:23:57.709Z,3.33
2018-06-17T10:26:25.850Z,2.80
2018-06-17T10:28:54.086Z,3.10
2018-06-17T10:31:23.217Z,2.50
2018-06-17T10:33:51.782Z,2.60
2018-06-17T10:36:19.990Z,3.03
2018-06-17T10:38:48.138Z,2.97
2018-06-17T10:41:16.316Z,3.00
2018-06-17T10:43:44.479Z,2.70
2018-06-17T10:46:12.634Z,2.30
2018-06-17T10:48:40.626Z,2.90
2018-06-17T10:51:08.763Z,3.33
2018-06-17T10:53:36.926Z,3.10
2018-06-17T10:56:05.231Z,3.13
2018-06-17T10:58:33.214Z,4.10
2018-06-17T11:01:01.430Z,3.70
2018-06-17T11:03:29.605Z,3.90
2018-06-17T11:05:57.797Z,3.70
2018-06-17T11:08:25.960Z,3.20
2018-06-17T11:10:54.138Z,3.33
2018-06-17T11:13:22.386Z,3.40
2018-06-17T11:15:50.221Z,3.40
2018-06-17T11:18:18.363Z,3.30
2018-06-17T11:20:46.506Z,3.37
2018-06-17T11:23:14.642Z,3.80
2018-06-17T11:25:42.790Z,3.70
2018-06-17T11:28:10.929Z,4.30
2018-06-17T11:30:39.086Z,4.30
2018-06-17T11:33:07.285Z,3.80
2018-06-17T11:35:35.450Z,3.53
2018-06-17T11:38:03.599Z,3.90
2018-06-17T11:40:31.770Z,4.20
2018-06-17T11:42:59.994Z,3.40
2018-06-17T11:45:28.174Z,3.73
2018-06-17T11:47:56.315Z,3.57
2018-06-17T11:50:24.452Z,4.40
2018-06-17T11:52:52.750Z,4.30
2018-06-17T11:55:20.870Z,3.90
2018-06-17T11:57:49.013Z,4.07
2018-06-17T12:00:17.166Z,4.10
2018-06-17T12:02:45.309Z,3.97
2018-06-17T12:05:13.454Z,4.27
2018-06-17T12:07:41.603Z,4.07
2018-06-17T12:10:10.507Z,3.40
2018-06-17T12:12:38.686Z,3.70
2018-06-17T12:15:06.856Z,3.10
2018-06-17T12:17:35.077Z,3.70
2018-06-17T12:20:03.415Z,3.77
2018-06-17T12:22:31.594Z,3.80
2018-06-17T12:24:59.829Z,4.30
2018-06-17T12:27:28.101Z,4.33
2018-06-17T12:29:56.251Z,3.53
2018-06-17T12:32:24.643Z,4.00
2018-06-17T12:34:52.898Z,3.83
2018-06-17T12:37:21.754Z,4.10
2018-06-17T12:39:49.899Z,3.40
2018-06-17T12:42:18.055Z,3.83
2018-06-17T12:44:46.778Z,3.80
2018-06-17T12:47:15.014Z,3.60
2018-06-17T12:49:43.162Z,3.77
2018-06-17T12:52:11.070Z,3.40
2018-06-17T12:54:39.214Z,3.50
2018-06-17T12:57:07.359Z,3.37
2018-06-17T12:59:35.523Z,3.00
2018-06-17T13:02:03.715Z,3.57
2018-06-17T13:04:31.886Z,3.67
2018-06-17T13:07:00.018Z,3.00
2018-06-17T13:09:28.169Z,3.30
2018-06-17T13:11:56.306Z,3.90
2018-06-17T13:14:24.442Z,4.80
2018-06-17T13:16:53.162Z,4.70
2018-06-17T13:19:21.402Z,3.27
2018-06-17T13:21:49.564Z,3.70
2018-06-17T13:24:17.705Z,2.97
2018-06-17T13:26:45.847Z,3.60
2018-06-17T13:29:13.985Z,4.20
2018-06-17T13:31:42.131Z,3.47
2018-06-17T13:34:10.337Z,3.23
2018-06-17T13:36:38.469Z,3.30
2018-06-17T13:39:07.626Z,3.30
2018-06-17T13:41:35.898Z,3.37
2018-06-17T13:44:04.054Z,3.40
2018-06-17T13:46:32.239Z,3.43
2018-06-17T13:49:00.397Z,3.90
2018-06-17T13:51:28.814Z,3.50
2018-06-17T13:53:56.974Z,3.80
2018-06-17T13:56:25.218Z,3.67
2018-06-17T13:58:53.357Z,3.10
2018-06-17T14:01:21.531Z,2.87
2018-06-17T14:03:49.698Z,3.47
2018-06-17T14:06:18.189Z,3.58
2018-06-17T14:08:46.374Z,3.47
2018-06-17T14:11:14.534Z,3.23
2018-06-17T14:13:42.669Z,3.20
2018-06-17T14:16:10.823Z,3.40
2018-06-17T14:18:38.973Z,3.70
2018-06-17T14:21:07.251Z,3.23
2018-06-17T14:23:35.424Z,3.60
2018-06-17T14:26:03.718Z,3.60
2018-06-17T14:28:31.918Z,3.37
2018-06-17T14:31:00.131Z,3.67
2018-06-17T14:33:28.295Z,3.40
2018-06-17T14:35:56.540Z,3.60
2018-06-17T14:38:24.462Z,4.00
2018-06-17T14:40:58.053Z,3.20
2018-06-17T14:43:31.742Z,3.90
2018-06-17T14:46:05.475Z,3.53
2018-06-17T14:48:38.874Z,3.93
2018-06-17T14:51:12.593Z,4.17
2018-06-17T14:53:40.836Z,3.70
2018-06-17T14:56:08.970Z,3.83
2018-06-17T14:58:37.106Z,3.77
2018-06-17T15:01:05.273Z,3.97
2018-06-17T15:03:33.454Z,3.73
2018-06-17T15:06:01.567Z,3.60
2018-06-17T15:08:30.890Z,3.87
2018-06-17T15:10:58.876Z,3.67
2018-06-17T15:13:26.999Z,3.83
2018-06-17T15:15:55.198Z,3.37
2018-06-17T15:18:23.316Z,3.47
2018-06-17T15:20:51.459Z,3.27
2018-06-17T15:23:19.599Z,3.60
2018-06-17T15:25:47.843Z,2.93
2018-06-17T15:28:16.000Z,3.47
2018-06-17T15:30:44.115Z,3.43
2018-06-17T15:33:17.790Z,3.67
2018-06-17T15:35:51.526Z,3.33
2018-06-17T15:38:25.178Z,3.30
2018-06-17T15:40:58.794Z,3.63
2018-06-17T15:43:27.284Z,3.30
2018-06-17T15:45:55.782Z,3.37
2018-06-17T15:48:23.979Z,3.33
2018-06-17T15:50:52.143Z,3.00
2018-06-17T15:53:20.246Z,3.10
2018-06-17T15:55:48.397Z,3.20
2018-06-17T15:58:16.607Z,3.47
2018-06-17T16:00:44.778Z,3.10
2018-06-17T16:03:12.922Z,3.10
2018-06-17T16:05:41.116Z,3.40
2018-06-17T16:08:09.294Z,2.47
2018-06-17T16:10:37.494Z,2.80
2018-06-17T16:13:11.189Z,2.80
2018-06-17T16:15:44.879Z,3.20
2018-06-17T16:18:18.317Z,2.87
2018-06-17T16:20:51.672Z,3.10
2018-06-17T16:23:19.831Z,3.10
2018-06-17T16:25:48.027Z,2.83
2018-06-17T16:28:16.178Z,3.70
2018-06-17T16:30:44.322Z,3.10
2018-06-17T16:33:12.454Z,3.70
2018-06-17T16:35:40.601Z,3.20
2018-06-17T16:38:08.773Z,3.20
2018-06-17T16:40:36.946Z,2.90
2018-06-17T16:43:05.114Z,2.80
2018-06-17T16:45:33.271Z,3.57
2018-06-17T16:48:01.406Z,3.47
2018-06-17T16:50:29.551Z,3.60
2018-06-17T16:53:03.194Z,3.30
2018-06-17T16:55:36.814Z,3.50
2018-06-17T16:58:10.370Z,3.37
2018-06-17T17:00:38.620Z,3.40
2018-06-17T17:03:06.754Z,3.80
2018-06-17T17:05:34.915Z,3.10
2018-06-17T17:08:03.059Z,3.40
2018-06-17T17:10:31.986Z,3.10
2018-06-17T17:13:00.234Z,3.73
2018-06-17T17:15:28.390Z,3.57
2018-06-17T17:17:56.618Z,3.33
2018-06-17T17:20:24.824Z,2.70
2018-06-17T17:22:52.977Z,2.90
2018-06-17T17:25:21.138Z,2.70
2018-06-17T17:27:49.305Z,2.70
2018-06-17T17:30:17.463Z,2.90
2018-06-17T17:32:50.818Z,2.93
2018-06-17T17:35:24.453Z,3.20
2018-06-17T17:37:58.134Z,2.85
2018-06-17T17:40:31.701Z,2.70
2018-06-17T17:42:59.914Z,2.83
2018-06-17T17:45:33.313Z,3.17
2018-06-17T17:48:01.490Z,2.50
2018-06-17T17:50:29.646Z,2.70
2018-06-17T17:52:57.827Z,2.80
2018-06-17T17:55:26.010Z,2.70
2018-06-17T17:57:54.182Z,2.73
2018-06-17T18:00:22.321Z,2.60
2018-06-17T18:02:50.469Z,2.67
2018-06-17T18:05:18.632Z,2.90
2018-06-17T18:07:46.808Z,3.03
2018-06-17T18:10:15.089Z,2.70
2018-06-17T18:12:43.220Z,2.70
2018-06-17T18:15:11.391Z,2.80
2018-06-17T18:17:39.606Z,2.80
2018-06-17T18:20:07.731Z,2.90
2018-06-17T18:22:35.953Z,2.30
2018-06-17T18:25:10.154Z,2.67
2018-06-17T18:27:43.803Z,2.80
2018-06-17T18:30:17.466Z,2.73
2018-06-17T18:32:50.950Z,2.50
2018-06-17T18:35:24.702Z,2.33
2018-06-17T18:37:52.838Z,2.20
2018-06-17T18:40:20.983Z,2.77
2018-06-17T18:42:49.206Z,2.50
2018-06-17T18:45:17.358Z,2.70
2018-06-17T18:47:45.510Z,3.80
2018-06-17T18:50:13.659Z,3.50
2018-06-17T18:52:41.806Z,4.50
2018-06-17T18:55:10.420Z,4.50
2018-06-17T18:57:38.561Z,4.77
2018-06-17T19:00:07.353Z,4.27
2018-06-17T19:02:35.524Z,5.47
2018-06-17T19:05:03.688Z,4.87
2018-06-17T19:07:31.893Z,6.10
2018-06-17T19:10:05.525Z,5.13
2018-06-17T19:12:39.043Z,6.23
2018-06-17T19:15:13.321Z,5.17
2018-06-17T19:17:46.934Z,5.07
2018-06-17T19:20:15.085Z,4.70
2018-06-17T19:22:43.266Z,4.77
2018-06-17T19:25:11.523Z,5.30
2018-06-17T19:27:39.690Z,4.80
2018-06-17T19:30:07.869Z,5.27
2018-06-17T19:32:36.121Z,5.50
2018-06-17T19:35:04.263Z,5.13
2018-06-17T19:37:32.174Z,4.90
2018-06-17T19:40:00.390Z,4.77
2018-06-17T19:42:28.525Z,4.90
2018-06-17T19:44:56.807Z,4.83
2018-06-17T19:47:25.002Z,4.67
2018-06-17T19:49:58.584Z,4.93
2018-06-17T19:52:32.035Z,5.23
2018-06-17T19:55:06.584Z,4.80
2018-06-17T19:57:40.146Z,4.47
2018-06-17T20:00:13.674Z,4.80
2018-06-17T20:02:41.914Z,4.57
2018-06-17T20:05:10.093Z,4.53
2018-06-17T20:07:38.297Z,4.77
2018-06-17T20:10:06.724Z,4.47
2018-06-17T20:12:34.882Z,4.73
2018-06-17T20:15:03.857Z,4.80
2018-06-17T20:17:32.050Z,4.17
2018-06-17T20:20:00.905Z,4.23
2018-06-17T20:22:29.094Z,4.30
2018-06-17T20:24:57.266Z,4.80
2018-06-17T20:27:25.551Z,3.70
2018-06-17T20:29:53.713Z,3.97
2018-06-17T20:32:27.356Z,4.10
2018-06-17T20:35:58.530Z,4.30
2018-06-17T20:38:32.019Z,4.47
2018-06-17T20:41:05.590Z,4.37
2018-06-17T20:43:39.047Z,4.43
2018-06-17T20:46:07.199Z,4.90
2018-06-17T20:48:35.327Z,4.47
2018-06-17T20:51:03.498Z,4.80
2018-06-17T20:53:31.683Z,3.93
2018-06-17T20:55:59.855Z,4.50
2018-06-17T20:58:27.981Z,4.80
2018-06-17T21:00:56.131Z,4.63
2018-06-17T21:03:24.328Z,4.60
2018-06-17T21:05:52.492Z,4.67
2018-06-17T21:08:20.652Z,5.73
2018-06-17T21:10:48.832Z,4.47
2018-06-17T21:13:16.962Z,4.67
2018-06-17T21:15:45.103Z,4.50
2018-06-17T21:18:13.241Z,4.80
2018-06-17T21:20:46.862Z,4.80
2018-06-17T21:23:20.570Z,5.00
2018-06-17T21:25:54.264Z,5.00
2018-06-17T21:28:22.415Z,4.50
2018-06-17T21:30:50.575Z,4.90
2018-06-17T21:33:18.723Z,4.87
2018-06-17T21:35:46.858Z,4.37
2018-06-17T21:38:14.998Z,4.50
2018-06-17T21:40:43.138Z,4.53
2018-06-17T21:43:11.282Z,4.40
2018-06-17T21:45:39.534Z,4.40
2018-06-17T21:48:07.787Z,4.50
2018-06-17T21:50:35.911Z,4.27
2018-06-17T21:53:04.278Z,3.70
2018-06-17T21:55:32.478Z,4.50
2018-06-17T21:58:00.725Z,4.67
2018-06-17T22:00:28.906Z,4.37
2018-06-17T22:02:57.062Z,4.27
2018-06-17T22:05:25.242Z,4.03
2018-06-17T22:07:58.830Z,3.93
2018-06-17T22:10:33.039Z,4.27
2018-06-17T22:13:02.202Z,4.27
2018-06-17T22:15:35.842Z,4.73
2018-06-17T22:18:04.706Z,4.87
2018-06-17T22:20:32.842Z,5.00
2018-06-17T22:23:01.027Z,4.43
2018-06-17T22:25:29.175Z,4.80
2018-06-17T22:27:57.330Z,4.97
2018-06-17T22:30:25.477Z,4.80
2018-06-17T22:32:53.625Z,4.73
2018-06-17T22:35:21.794Z,4.40
2018-06-17T22:37:49.938Z,4.70
2018-06-17T22:40:17.895Z,4.70
2018-06-17T22:42:46.046Z,4.73
2018-06-17T22:45:14.206Z,4.90
2018-06-17T22:47:47.658Z,4.53
2018-06-17T22:50:15.846Z,5.30
2018-06-17T22:52:55.439Z,4.37
2018-06-17T22:55:23.646Z,4.10
2018-06-17T22:57:57.382Z,4.40
2018-06-17T23:00:31.110Z,4.90
2018-06-17T23:03:04.818Z,4.97
2018-06-17T23:05:38.324Z,5.13
2018-06-17T23:08:12.011Z,4.70
2018-06-17T23:10:40.181Z,5.23
2018-06-17T23:13:08.311Z,5.13
2018-06-17T23:15:36.510Z,5.53
2018-06-17T23:18:04.645Z,5.30
2018-06-17T23:20:32.805Z,5.17
2018-06-17T23:23:00.975Z,5.10
2018-06-17T23:25:29.131Z,5.10
2018-06-17T23:27:57.420Z,5.27
2018-06-17T23:30:25.558Z,5.77
2018-06-17T23:32:53.691Z,5.50
2018-06-17T23:35:21.844Z,6.07
2018-06-17T23:37:49.979Z,5.70
2018-06-17T23:40:18.174Z,5.97
2018-06-17T23:42:46.314Z,6.40
2018-06-17T23:45:14.513Z,6.83
2018-06-17T23:47:48.054Z,5.60
2018-06-17T23:50:21.680Z,6.10
2018-06-17T23:52:55.351Z,6.20
2018-06-17T23:55:29.038Z,6.80
2018-06-17T23:57:56.981Z,6.73
